createdAt,value
2022-09-11T00:01:40.682Z,72.89
2022-09-11T00:04:08.448Z,71.56
2022-09-11T00:06:35.995Z,72.59
2022-09-11T00:09:06.314Z,75.61
2022-09-11T00:11:42.317Z,78.92
2022-09-11T00:14:17.155Z,74.38
2022-09-11T00:16:48.123Z,73.70
2022-09-11T00:19:23.497Z,76.95
2022-09-11T00:21:57.518Z,77.51
2022-09-11T00:24:27.767Z,76.48
2022-09-11T00:26:55.168Z,73.36
2022-09-11T00:29:24.124Z,73.59
2022-09-11T00:31:51.512Z,73.18
2022-09-11T00:34:24.355Z,71.94
2022-09-11T00:36:54.847Z,71.60
2022-09-11T00:39:22.313Z,70.13
2022-09-11T00:41:49.834Z,70.44
2022-09-11T00:44:18.073Z,69.70
2022-09-11T00:46:53.506Z,69.95
2022-09-11T00:49:37.504Z,69.68
2022-09-11T00:52:33.463Z,69.47
2022-09-11T00:55:16.866Z,71.42
2022-09-11T00:58:06.308Z,71.09
2022-09-11T01:00:34.206Z,70.73
2022-09-11T01:03:01.989Z,69.59
2022-09-11T01:05:35.064Z,69.45
2022-09-11T01:08:04.085Z,70.22
2022-09-11T01:10:45.679Z,69.22
2022-09-11T01:13:35.936Z,69.06
2022-09-11T01:16:22.435Z,68.50
2022-09-11T01:19:25.558Z,67.93
2022-09-11T01:22:33.741Z,67.79
2022-09-11T01:25:19.689Z,67.29
2022-09-11T01:27:56.131Z,67.15
2022-09-11T01:30:30.484Z,67.00
2022-09-11T01:33:19.503Z,67.38
2022-09-11T01:35:47.206Z,67.36
2022-09-11T01:38:20.372Z,67.17
2022-09-11T01:41:08.092Z,66.34
2022-09-11T01:43:43.828Z,67.07
2022-09-11T01:46:13.689Z,66.85
2022-09-11T01:48:47.686Z,66.66
2022-09-11T01:51:19.711Z,66.67
2022-09-11T01:53:50.599Z,67.07
2022-09-11T01:56:29.476Z,66.56
2022-09-11T01:59:03.831Z,66.43
2022-09-11T02:01:39.179Z,67.09
2022-09-11T02:04:12.785Z,67.86
2022-09-11T02:06:53.821Z,67.76
2022-09-11T02:09:31.484Z,66.81
2022-09-11T02:12:03.719Z,65.70
2022-09-11T02:14:39.051Z,65.27
2022-09-11T02:17:24.844Z,64.31
2022-09-11T02:19:57.351Z,63.32
2022-09-11T02:22:25.420Z,64.53
2022-09-11T02:24:53.854Z,64.95
2022-09-11T02:27:25.043Z,64.26
2022-09-11T02:29:54.191Z,63.76
2022-09-11T02:32:23.120Z,63.64
2022-09-11T02:34:51.616Z,64.22
2022-09-11T02:37:51.743Z,63.57
2022-09-11T02:40:45.094Z,63.00
2022-09-11T02:43:21.160Z,63.93
2022-09-11T02:46:09.930Z,64.08
2022-09-11T02:48:55.552Z,63.69
2022-09-11T02:51:38.559Z,63.82
2022-09-11T02:54:15.081Z,63.42
2022-09-11T02:56:48.532Z,63.21
2022-09-11T02:59:38.871Z,62.98
2022-09-11T03:02:17.525Z,63.10
2022-09-11T03:04:48.757Z,63.06
2022-09-11T03:07:17.017Z,62.63
2022-09-11T03:09:44.656Z,63.03
2022-09-11T03:12:18.661Z,62.83
2022-09-11T03:14:49.807Z,62.98
2022-09-11T03:17:17.477Z,62.83
2022-09-11T03:19:44.922Z,63.06
2022-09-11T03:22:12.621Z,62.89
2022-09-11T03:24:39.971Z,62.98
2022-09-11T03:27:08.565Z,63.15
2022-09-11T03:29:35.991Z,62.04
2022-09-11T03:32:03.427Z,62.00
2022-09-11T03:34:31.973Z,61.55
2022-09-11T03:37:00.428Z,61.87
2022-09-11T03:39:29.171Z,61.95
2022-09-11T03:41:59.627Z,62.10
2022-09-11T03:44:27.538Z,61.56
2022-09-11T03:46:54.866Z,61.84
2022-09-11T03:49:22.241Z,62.28
2022-09-11T03:51:49.963Z,61.89
2022-09-11T03:54:19.122Z,61.16
2022-09-11T03:56:47.315Z,61.63
2022-09-11T03:59:16.154Z,62.13
2022-09-11T04:01:44.761Z,62.68
2022-09-11T04:04:13.439Z,62.90
2022-09-11T04:06:44.505Z,63.59
2022-09-11T04:09:12.196Z,62.36
2022-09-11T04:11:40.330Z,62.66
2022-09-11T04:14:22.728Z,62.41
2022-09-11T04:16:52.346Z,62.35
2022-09-11T04:19:21.592Z,61.96
2022-09-11T04:21:50.031Z,61.94
2022-09-11T04:24:17.575Z,62.19
2022-09-11T04:26:46.992Z,61.93
2022-09-11T04:29:28.197Z,62.32
2022-09-11T04:31:57.311Z,62.30
2022-09-11T04:34:28.242Z,63.08
2022-09-11T04:36:56.772Z,63.42
2022-09-11T04:39:24.732Z,63.21
2022-09-11T04:41:51.937Z,63.03
2022-09-11T04:44:23.011Z,62.39
2022-09-11T04:46:51.494Z,62.03
2022-09-11T04:49:20.197Z,61.98
2022-09-11T04:51:47.937Z,62.21
2022-09-11T04:54:21.612Z,63.18
2022-09-11T04:56:53.073Z,63.34
2022-09-11T04:59:23.656Z,62.49
2022-09-11T05:01:56.611Z,63.07
2022-09-11T05:04:26.366Z,63.31
2022-09-11T05:06:55.544Z,63.42
2022-09-11T05:09:24.412Z,63.18
2022-09-11T05:11:52.044Z,62.83
2022-09-11T05:14:21.738Z,63.11
2022-09-11T05:16:53.049Z,63.14
2022-09-11T05:19:24.009Z,63.04
2022-09-11T05:21:53.502Z,62.22
2022-09-11T05:24:20.869Z,62.47
2022-09-11T05:26:49.218Z,62.17
2022-09-11T05:29:17.498Z,61.51
2022-09-11T05:32:07.225Z,61.24
2022-09-11T05:34:34.668Z,60.63
2022-09-11T05:37:03.489Z,60.96
2022-09-11T05:39:36.287Z,60.81
2022-09-11T05:42:04.786Z,60.48
2022-09-11T05:44:38.269Z,59.58
2022-09-11T05:47:06.873Z,60.10
2022-09-11T05:49:34.262Z,59.99
2022-09-11T05:52:02.778Z,58.77
2022-09-11T05:54:32.359Z,59.04
2022-09-11T05:57:07.015Z,58.86
2022-09-11T05:59:36.860Z,58.72
2022-09-11T06:02:04.314Z,59.07
2022-09-11T06:04:39.925Z,57.31
2022-09-11T06:07:08.454Z,56.92
2022-09-11T06:09:36.877Z,56.90
2022-09-11T06:12:04.708Z,57.31
2022-09-11T06:14:32.473Z,58.94
2022-09-11T06:17:00.767Z,61.43
2022-09-11T06:19:31.365Z,61.27
2022-09-11T06:21:59.224Z,60.78
2022-09-11T06:24:33.864Z,60.74
2022-09-11T06:27:02.499Z,59.22
2022-09-11T06:29:34.710Z,58.55
2022-09-11T06:32:04.094Z,58.93
2022-09-11T06:34:34.180Z,59.08
2022-09-11T06:37:05.618Z,58.43
2022-09-11T06:39:34.432Z,57.86
2022-09-11T06:42:03.041Z,57.11
2022-09-11T06:44:35.829Z,57.32
2022-09-11T06:47:04.295Z,57.01
2022-09-11T06:49:33.265Z,55.34
2022-09-11T06:52:20.107Z,55.66
2022-09-11T06:55:00.430Z,55.69
2022-09-11T06:57:28.888Z,55.33
2022-09-11T06:59:58.921Z,56.86
2022-09-11T07:02:27.284Z,57.39
2022-09-11T07:04:55.225Z,57.12
2022-09-11T07:07:25.629Z,56.23
2022-09-11T07:09:52.980Z,56.39
2022-09-11T07:12:24.279Z,54.71
2022-09-11T07:14:52.265Z,51.88
2022-09-11T07:17:19.680Z,50.68
2022-09-11T07:19:50.534Z,50.07
2022-09-11T07:22:19.935Z,49.26
2022-09-11T07:24:48.945Z,46.84
2022-09-11T07:27:16.163Z,44.03
2022-09-11T07:29:44.620Z,45.70
2022-09-11T07:32:12.015Z,44.63
2022-09-11T07:34:42.632Z,44.54
2022-09-11T07:37:11.126Z,44.47
2022-09-11T07:39:40.186Z,46.17
2022-09-11T07:42:13.328Z,45.67
2022-09-11T07:44:42.183Z,45.23
2022-09-11T07:47:10.226Z,45.98
2022-09-11T07:49:42.751Z,45.84
2022-09-11T07:52:12.607Z,46.62
2022-09-11T07:54:48.629Z,45.88
2022-09-11T07:57:16.680Z,44.22
2022-09-11T07:59:45.023Z,42.80
2022-09-11T08:02:13.489Z,43.56
2022-09-11T08:04:42.549Z,43.27
2022-09-11T08:07:11.150Z,43.47
2022-09-11T08:09:39.394Z,44.01
2022-09-11T08:12:07.961Z,43.21
2022-09-11T08:14:37.231Z,42.80
2022-09-11T08:17:16.621Z,43.53
2022-09-11T08:19:44.049Z,44.00
2022-09-11T08:22:13.213Z,43.54
2022-09-11T08:24:44.742Z,42.67
2022-09-11T08:27:15.200Z,41.89
2022-09-11T08:29:43.307Z,41.44
2022-09-11T08:32:11.145Z,41.52
2022-09-11T08:34:39.600Z,42.31
2022-09-11T08:37:06.999Z,42.30
2022-09-11T08:39:36.066Z,42.14
2022-09-11T08:42:13.400Z,42.06
2022-09-11T08:44:53.856Z,41.80
2022-09-11T08:47:37.446Z,42.01
2022-09-11T08:50:20.586Z,42.22
2022-09-11T08:52:49.043Z,41.83
2022-09-11T08:55:30.338Z,42.60
2022-09-11T08:58:19.406Z,40.92
2022-09-11T09:01:02.265Z,41.38
2022-09-11T09:03:35.759Z,41.36
2022-09-11T09:06:17.313Z,41.82
2022-09-11T09:09:00.915Z,42.42
2022-09-11T09:11:53.548Z,41.95
2022-09-11T09:14:36.949Z,40.56
2022-09-11T09:17:20.341Z,40.78
2022-09-11T09:20:00.766Z,40.24
2022-09-11T09:22:36.852Z,41.16
2022-09-11T09:25:13.737Z,40.18
2022-09-11T09:27:54.491Z,39.44
2022-09-11T09:30:24.861Z,38.76
2022-09-11T09:33:01.445Z,39.79
2022-09-11T09:35:41.950Z,39.18
2022-09-11T09:38:23.852Z,38.20
2022-09-11T09:41:26.216Z,38.83
2022-09-11T09:44:24.722Z,39.99
2022-09-11T09:46:56.372Z,39.85
2022-09-11T09:49:28.199Z,40.29
2022-09-11T09:52:03.603Z,39.72
2022-09-11T09:54:36.663Z,40.97
2022-09-11T09:57:10.687Z,40.19
2022-09-11T09:59:51.997Z,40.42
2022-09-11T10:02:54.971Z,40.95
2022-09-11T10:05:27.468Z,41.33
2022-09-11T10:07:58.657Z,41.50
2022-09-11T10:10:29.628Z,41.58
2022-09-11T10:13:18.028Z,43.28
2022-09-11T10:15:49.366Z,44.01
2022-09-11T10:18:32.522Z,43.53
2022-09-11T10:21:12.036Z,44.01
2022-09-11T10:24:24.023Z,43.77
2022-09-11T10:26:54.438Z,43.04
2022-09-11T10:29:30.283Z,42.68
2022-09-11T10:32:02.705Z,42.34
2022-09-11T10:34:48.925Z,41.99
2022-09-11T10:37:25.573Z,40.32
2022-09-11T10:39:54.304Z,41.61
2022-09-11T10:42:27.844Z,43.65
2022-09-11T10:45:02.287Z,44.78
2022-09-11T10:47:33.093Z,44.91
2022-09-11T10:50:18.976Z,45.58
2022-09-11T10:52:58.653Z,45.77
2022-09-11T10:55:55.972Z,45.95
2022-09-11T10:58:31.357Z,46.06
2022-09-11T11:00:58.823Z,45.88
2022-09-11T11:03:28.559Z,46.15
2022-09-11T11:06:36.095Z,47.17
2022-09-11T11:09:43.703Z,50.60
2022-09-11T11:12:50.153Z,51.65
2022-09-11T11:15:30.505Z,52.02
2022-09-11T11:18:16.308Z,53.39
2022-09-11T11:20:48.877Z,54.52
2022-09-11T11:23:30.115Z,54.91
2022-09-11T11:26:13.424Z,53.75
2022-09-11T11:28:58.868Z,50.77
2022-09-11T11:32:01.273Z,48.56
2022-09-11T11:35:04.245Z,49.21
2022-09-11T11:37:40.221Z,49.64
2022-09-11T11:40:29.343Z,46.02
2022-09-11T11:43:03.712Z,42.15
2022-09-11T11:45:56.021Z,43.18
2022-09-11T11:48:31.681Z,40.28
2022-09-11T11:51:15.621Z,40.48
2022-09-11T11:54:03.555Z,39.89
2022-09-11T11:57:02.504Z,39.71
2022-09-11T11:59:42.365Z,42.16
2022-09-11T12:02:09.647Z,43.47
2022-09-11T12:05:00.315Z,43.31
2022-09-11T12:07:33.418Z,44.29
2022-09-11T12:10:03.849Z,44.73
2022-09-11T12:12:47.990Z,45.51
2022-09-11T12:15:24.543Z,46.17
2022-09-11T12:18:07.255Z,47.55
2022-09-11T12:20:39.414Z,47.56
2022-09-11T12:23:28.169Z,47.22
2022-09-11T12:26:25.152Z,46.12
2022-09-11T12:29:25.253Z,46.36
2022-09-11T12:31:52.583Z,46.00
2022-09-11T12:34:27.665Z,46.01
2022-09-11T12:37:00.906Z,46.69
2022-09-11T12:39:35.867Z,45.29
2022-09-11T12:42:24.699Z,44.44
2022-09-11T12:44:51.882Z,45.21
2022-09-11T12:47:27.644Z,46.99
2022-09-11T12:50:06.157Z,48.15
2022-09-11T12:52:45.382Z,48.28
2022-09-11T12:55:43.565Z,49.31
2022-09-11T12:58:25.636Z,50.44
2022-09-11T13:01:23.509Z,50.55
2022-09-11T13:04:21.846Z,51.67
2022-09-11T13:06:55.086Z,52.56
2022-09-11T13:09:26.070Z,51.34
2022-09-11T13:11:55.380Z,49.91
2022-09-11T13:14:33.555Z,50.09
2022-09-11T13:17:03.038Z,50.14
2022-09-11T13:19:37.814Z,50.50
2022-09-11T13:22:31.332Z,49.83
2022-09-11T13:25:22.876Z,49.66
2022-09-11T13:28:06.361Z,49.69
2022-09-11T13:30:34.381Z,50.22
2022-09-11T13:33:20.625Z,49.86
2022-09-11T13:35:50.495Z,49.48
2022-09-11T13:38:32.657Z,50.08
2022-09-11T13:41:06.516Z,50.57
2022-09-11T13:43:59.356Z,51.25
2022-09-11T13:46:26.832Z,52.39
2022-09-11T14:01:53.602Z,53.11
2022-09-11T14:04:22.051Z,53.64
2022-09-11T14:06:49.530Z,54.02
2022-09-11T14:09:20.421Z,52.38
2022-09-11T14:11:48.561Z,51.64
2022-09-11T14:14:26.183Z,50.49
2022-09-11T14:16:59.359Z,49.77
2022-09-11T14:19:30.965Z,48.51
2022-09-11T14:21:59.221Z,47.97
2022-09-11T14:24:35.241Z,49.64
2022-09-11T14:27:04.937Z,49.89
2022-09-11T14:29:36.453Z,49.03
2022-09-11T14:32:23.538Z,49.07
2022-09-11T14:34:50.936Z,49.68
2022-09-11T14:37:18.311Z,49.29
2022-09-11T14:39:50.501Z,48.81
2022-09-11T14:42:23.676Z,49.14
2022-09-11T14:44:51.675Z,48.89
2022-09-11T14:47:23.021Z,46.89
2022-09-11T14:49:55.497Z,46.94
2022-09-11T14:52:25.829Z,47.97
2022-09-11T14:54:54.404Z,48.80
2022-09-11T14:57:25.257Z,48.81
2022-09-11T14:59:53.256Z,49.04
2022-09-11T15:02:25.857Z,48.41
2022-09-11T15:04:55.421Z,48.53
2022-09-11T15:07:24.316Z,48.46
2022-09-11T15:09:53.983Z,48.66
2022-09-11T15:12:22.711Z,47.94
2022-09-11T15:14:59.114Z,48.16
2022-09-11T15:17:31.914Z,47.76
2022-09-11T15:20:00.867Z,48.14
2022-09-11T15:22:29.135Z,47.43
2022-09-11T15:24:58.377Z,46.52
2022-09-11T15:27:25.863Z,46.73
2022-09-11T15:29:54.066Z,46.98
2022-09-11T15:32:21.571Z,47.40
2022-09-11T15:34:49.348Z,47.65
2022-09-11T15:37:17.260Z,48.37
2022-09-11T15:39:44.940Z,46.82
2022-09-11T15:42:13.723Z,47.46
2022-09-11T15:44:41.226Z,48.35
2022-09-11T15:47:09.212Z,48.52
2022-09-11T15:49:44.844Z,47.65
2022-09-11T15:52:12.796Z,48.38
2022-09-11T15:54:40.360Z,48.70
2022-09-11T15:57:08.416Z,49.88
2022-09-11T15:59:35.792Z,50.36
2022-09-11T16:02:03.200Z,51.28
2022-09-11T16:04:32.432Z,50.73
2022-09-11T16:07:00.241Z,51.31
2022-09-11T16:09:33.412Z,51.85
2022-09-11T16:12:02.130Z,51.23
2022-09-11T16:14:35.248Z,51.86
2022-09-11T16:17:03.798Z,52.02
2022-09-11T16:19:31.978Z,52.41
2022-09-11T16:22:01.766Z,53.39
2022-09-11T16:24:31.028Z,52.21
2022-09-11T16:27:01.001Z,53.34
2022-09-11T16:29:51.160Z,54.35
2022-09-11T16:32:28.844Z,53.70
2022-09-11T16:34:57.923Z,54.33
2022-09-11T16:37:26.249Z,54.84
2022-09-11T16:39:55.054Z,55.21
2022-09-11T16:42:22.904Z,54.89
2022-09-11T16:44:55.207Z,55.11
2022-09-11T16:47:23.202Z,55.59
2022-09-11T16:50:06.433Z,55.91
2022-09-11T16:52:34.941Z,54.54
2022-09-11T16:55:02.676Z,54.33
2022-09-11T16:57:31.232Z,52.66
2022-09-11T16:59:59.083Z,49.92
2022-09-11T17:02:27.207Z,50.12
2022-09-11T17:04:54.541Z,52.80
2022-09-11T17:07:21.849Z,54.93
2022-09-11T17:09:49.221Z,54.90
2022-09-11T17:12:18.178Z,56.30
2022-09-11T17:14:45.504Z,56.57
2022-09-11T17:17:14.014Z,56.70
2022-09-11T17:19:42.024Z,56.96
2022-09-11T17:22:10.609Z,55.89
2022-09-11T17:24:39.105Z,56.45
2022-09-11T17:27:07.644Z,55.66
2022-09-11T17:29:35.477Z,54.74
2022-09-11T17:32:26.214Z,55.75
2022-09-11T17:34:51.682Z,55.56
2022-09-11T17:37:19.000Z,56.79
2022-09-11T17:39:47.082Z,57.15
2022-09-11T17:42:14.409Z,58.09
2022-09-11T17:44:43.110Z,58.86
2022-09-11T17:47:10.456Z,60.08
2022-09-11T17:49:38.644Z,61.13
2022-09-11T17:52:06.189Z,62.03
2022-09-11T17:54:33.708Z,62.36
2022-09-11T17:57:01.309Z,62.83
2022-09-11T17:59:28.613Z,63.22
2022-09-11T18:01:56.014Z,63.45
2022-09-11T18:04:23.375Z,63.85
2022-09-11T18:06:51.429Z,64.04
2022-09-11T18:09:20.195Z,64.10
2022-09-11T18:11:50.626Z,64.69
2022-09-11T18:14:19.093Z,64.50
2022-09-11T18:16:50.619Z,64.87
2022-09-11T18:19:20.790Z,65.05
2022-09-11T18:21:50.594Z,65.20
2022-09-11T18:24:20.860Z,65.45
2022-09-11T18:26:57.241Z,65.90
2022-09-11T18:29:24.807Z,65.78
2022-09-11T18:31:56.299Z,65.74
2022-09-11T18:34:27.847Z,65.50
2022-09-11T18:36:55.411Z,65.21
2022-09-11T18:39:22.898Z,65.32
2022-09-11T18:41:53.075Z,65.60
2022-09-11T18:44:22.526Z,65.63
2022-09-11T18:46:53.596Z,65.47
2022-09-11T18:49:21.770Z,65.76
2022-09-11T18:51:49.190Z,66.08
2022-09-11T18:54:20.491Z,66.11
2022-09-11T18:56:49.430Z,66.47
2022-09-11T18:59:17.320Z,66.25
2022-09-11T19:01:44.970Z,66.50
2022-09-11T19:04:14.985Z,66.47
2022-09-11T19:06:42.606Z,66.72
2022-09-11T19:09:12.649Z,66.96
2022-09-11T19:11:41.004Z,67.25
2022-09-11T19:14:10.826Z,67.24
2022-09-11T19:16:39.501Z,67.93
2022-09-11T19:19:07.797Z,67.92
2022-09-11T19:21:36.612Z,68.40
2022-09-11T19:24:04.712Z,68.60
2022-09-11T19:26:36.000Z,68.70
2022-09-11T19:29:03.432Z,69.42
2022-09-11T19:31:30.822Z,69.19
2022-09-11T19:34:01.737Z,69.06
2022-09-11T19:36:32.254Z,68.80
2022-09-11T19:39:01.096Z,68.90
2022-09-11T19:41:31.276Z,68.97
2022-09-11T19:44:01.747Z,69.17
2022-09-11T19:46:30.761Z,69.14
2022-09-11T19:49:00.941Z,69.42
2022-09-11T19:51:31.243Z,69.65
2022-09-11T19:54:00.615Z,69.70
2022-09-11T19:56:29.601Z,69.97
2022-09-11T19:58:57.150Z,69.94
2022-09-11T20:01:25.922Z,69.65
2022-09-11T20:03:55.348Z,69.22
2022-09-11T20:06:25.685Z,69.32
2022-09-11T20:09:07.967Z,68.88
2022-09-11T20:11:41.976Z,69.13
2022-09-11T20:14:10.585Z,69.60
2022-09-11T20:16:38.154Z,69.08
2022-09-11T20:19:06.736Z,69.11
2022-09-11T20:21:36.325Z,68.90
2022-09-11T20:24:06.539Z,68.88
2022-09-11T20:26:34.538Z,69.08
2022-09-11T20:29:07.103Z,69.40
2022-09-11T20:31:48.019Z,69.38
2022-09-11T20:34:19.966Z,69.39
2022-09-11T20:36:48.485Z,69.47
2022-09-11T20:39:16.824Z,69.74
2022-09-11T20:41:44.550Z,70.09
2022-09-11T20:44:12.303Z,69.95
2022-09-11T20:46:40.053Z,70.16
2022-09-11T20:49:07.569Z,70.21
2022-09-11T20:51:35.117Z,70.23
2022-09-11T20:54:02.815Z,69.37
2022-09-11T20:56:30.343Z,69.24
2022-09-11T20:58:57.925Z,69.67
2022-09-11T21:01:27.123Z,69.99
2022-09-11T21:03:57.310Z,70.21
2022-09-11T21:06:27.417Z,69.66
2022-09-11T21:08:59.929Z,69.32
2022-09-11T21:11:41.563Z,69.15
2022-09-11T21:14:10.169Z,69.79
2022-09-11T21:16:38.159Z,69.81
2022-09-11T21:19:06.972Z,69.77
2022-09-11T21:21:38.012Z,70.16
2022-09-11T21:24:07.426Z,70.36
2022-09-11T21:26:35.670Z,69.93
2022-09-11T21:29:07.549Z,69.82
2022-09-11T21:31:35.524Z,70.26
2022-09-11T21:34:04.478Z,69.48
2022-09-11T21:36:33.682Z,69.93
2022-09-11T21:39:01.070Z,69.66
2022-09-11T21:41:28.471Z,69.77
2022-09-11T21:43:55.875Z,70.25
2022-09-11T21:46:23.343Z,69.76
2022-09-11T21:48:50.791Z,69.96
2022-09-11T21:51:20.537Z,70.01
2022-09-11T21:53:50.084Z,70.79
2022-09-11T21:56:20.125Z,71.59
2022-09-11T21:58:50.673Z,72.13
2022-09-11T22:01:18.836Z,72.90
2022-09-11T22:03:46.938Z,72.37
2022-09-11T22:06:14.803Z,72.70
2022-09-11T22:08:47.325Z,72.15
2022-09-11T22:11:15.562Z,72.09
2022-09-11T22:13:43.339Z,72.19
2022-09-11T22:16:13.944Z,72.41
2022-09-11T22:18:41.958Z,71.69
2022-09-11T22:21:10.544Z,71.65
2022-09-11T22:23:37.993Z,73.02
2022-09-11T22:26:09.269Z,72.64
2022-09-11T22:28:38.114Z,73.35
2022-09-11T22:31:10.558Z,73.17
2022-09-11T22:33:39.564Z,72.40
2022-09-11T22:36:12.134Z,73.49
2022-09-11T22:38:39.838Z,73.13
2022-09-11T22:41:07.817Z,73.36
2022-09-11T22:43:35.548Z,73.20
2022-09-11T22:46:03.410Z,73.05
2022-09-11T22:48:30.822Z,73.38
2022-09-11T22:50:58.394Z,73.15
2022-09-11T22:53:27.153Z,73.74
2022-09-11T22:55:55.334Z,73.77
2022-09-11T22:58:24.225Z,73.82
2022-09-11T23:00:55.047Z,73.31
2022-09-11T23:03:22.707Z,74.19
2022-09-11T23:06:14.528Z,74.06
2022-09-11T23:08:42.171Z,74.59
2022-09-11T23:11:11.407Z,73.72
2022-09-11T23:13:39.049Z,73.91
2022-09-11T23:16:15.617Z,74.28
2022-09-11T23:18:44.566Z,75.00
2022-09-11T23:21:12.943Z,73.85
2022-09-11T23:23:45.107Z,73.98
2022-09-11T23:26:13.986Z,73.20
2022-09-11T23:28:41.965Z,74.59
2022-09-11T23:31:18.821Z,74.54
2022-09-11T23:33:47.489Z,74.39
2022-09-11T23:36:16.811Z,73.90
2022-09-11T23:38:46.006Z,74.08
2022-09-11T23:41:15.801Z,74.68
2022-09-11T23:43:43.604Z,74.82
2022-09-11T23:46:23.464Z,74.53
2022-09-11T23:48:51.058Z,74.58
2022-09-11T23:51:18.574Z,74.32
2022-09-11T23:53:45.970Z,74.18
2022-09-11T23:56:14.668Z,74.89
2022-09-11T23:58:42.827Z,75.01
